createdAt,value
2018-07-19T00:02:23.933Z,14.15
2018-07-19T00:07:28.305Z,13.87
2018-07-19T00:12:31.807Z,13.76
2018-07-19T00:17:35.642Z,14.31
2018-07-19T00:22:39.113Z,14.35
2018-07-19T00:27:42.620Z,14.17
2018-07-19T00:32:46.113Z,13.91
2018-07-19T00:37:49.665Z,14.21
2018-07-19T00:42:53.457Z,14.14
2018-07-19T00:47:56.962Z,14.09
2018-07-19T00:53:00.671Z,14.03
2018-07-19T00:58:04.457Z,14.00
2018-07-19T01:03:08.103Z,13.97
2018-07-19T01:08:11.821Z,14.30
2018-07-19T01:13:15.377Z,13.97
2018-07-19T01:18:19.175Z,13.92
2018-07-19T01:23:23.017Z,14.11
2018-07-19T01:28:26.699Z,14.01
2018-07-19T01:33:30.336Z,13.76
2018-07-19T01:38:33.797Z,13.92
2018-07-19T01:43:37.466Z,13.72
2018-07-19T01:48:40.979Z,13.73
2018-07-19T01:53:44.647Z,13.90
2018-07-19T01:58:48.145Z,14.30
2018-07-19T02:03:51.726Z,14.19
2018-07-19T02:08:55.557Z,13.93
2018-07-19T02:13:59.222Z,14.16
2018-07-19T02:19:02.900Z,13.92
2018-07-19T02:24:06.404Z,14.25
2018-07-19T02:29:09.889Z,13.93
2018-07-19T02:34:13.461Z,14.14
2018-07-19T02:39:17.163Z,14.10
2018-07-19T02:44:20.774Z,13.72
2018-07-19T02:49:24.293Z,13.96
2018-07-19T02:54:27.828Z,14.00
2018-07-19T02:59:31.292Z,13.96
2018-07-19T03:04:34.816Z,14.14
2018-07-19T03:09:38.462Z,13.84
2018-07-19T03:14:41.976Z,14.21
2018-07-19T03:19:45.789Z,14.08
2018-07-19T03:24:49.263Z,13.81
2018-07-19T03:29:52.782Z,14.38
2018-07-19T03:34:56.309Z,14.37
2018-07-19T03:40:00.016Z,14.25
2018-07-19T03:45:03.569Z,14.53
2018-07-19T03:50:08.269Z,14.46
2018-07-19T03:55:12.062Z,14.11
2018-07-19T04:00:15.864Z,14.57
2018-07-19T04:05:19.402Z,14.06
2018-07-19T04:10:22.998Z,14.70
2018-07-19T04:15:26.718Z,13.85
2018-07-19T04:20:31.627Z,14.19
2018-07-19T04:25:35.129Z,14.40
2018-07-19T04:30:38.893Z,14.77
2018-07-19T04:35:42.719Z,14.85
2018-07-19T04:40:46.445Z,15.04
2018-07-19T04:45:50.033Z,15.22
2018-07-19T04:50:53.625Z,14.93
2018-07-19T04:55:57.390Z,15.33
2018-07-19T05:01:02.143Z,15.47
2018-07-19T05:06:05.817Z,15.45
2018-07-19T05:11:09.481Z,15.77
2018-07-19T05:16:12.956Z,15.62
2018-07-19T05:21:16.448Z,16.11
2018-07-19T05:26:19.926Z,15.74
2018-07-19T05:31:23.942Z,16.12
2018-07-19T05:36:27.667Z,16.25
2018-07-19T05:41:31.365Z,15.89
2018-07-19T05:46:35.036Z,16.23
2018-07-19T05:51:38.624Z,16.38
2018-07-19T05:56:42.305Z,16.47
2018-07-19T06:01:45.930Z,16.31
2018-07-19T06:06:49.416Z,16.06
2018-07-19T06:11:52.918Z,16.50
2018-07-19T06:16:56.420Z,16.50
2018-07-19T06:21:59.920Z,16.46
2018-07-19T06:27:03.427Z,15.85
2018-07-19T06:32:07.032Z,15.92
2018-07-19T06:37:10.879Z,15.74
2018-07-19T06:42:14.481Z,15.78
2018-07-19T06:47:18.025Z,15.85
2018-07-19T06:52:21.503Z,16.44
2018-07-19T06:57:25.076Z,15.93
2018-07-19T07:02:28.589Z,16.38
2018-07-19T07:23:55.205Z,16.98
2018-07-19T07:28:58.629Z,16.37
2018-07-19T07:34:02.379Z,16.60
2018-07-19T07:39:08.902Z,16.43
2018-07-19T07:44:12.554Z,17.03
2018-07-19T07:49:16.098Z,16.77
2018-07-19T07:54:19.675Z,16.62
2018-07-19T07:59:23.549Z,16.63
2018-07-19T08:04:27.302Z,16.93
2018-07-19T08:09:30.857Z,17.24
2018-07-19T08:14:34.780Z,17.00
2018-07-19T08:19:38.238Z,17.47
2018-07-19T08:24:41.701Z,17.42
2018-07-19T08:29:45.198Z,17.23
2018-07-19T08:34:48.973Z,17.54
2018-07-19T08:39:52.548Z,17.67
2018-07-19T08:44:56.583Z,17.91
2018-07-19T08:50:00.281Z,17.51
2018-07-19T08:55:04.120Z,17.58
2018-07-19T09:00:07.792Z,17.51
2018-07-19T09:05:11.776Z,18.29
2018-07-19T09:10:15.817Z,18.05
2018-07-19T09:15:19.520Z,18.48
2018-07-19T09:20:23.090Z,18.10
2018-07-19T09:25:26.949Z,18.42
2018-07-19T09:30:30.506Z,18.31
2018-07-19T09:35:34.188Z,18.45
2018-07-19T09:40:37.788Z,17.74
2018-07-19T09:45:41.309Z,17.81
2018-07-19T09:50:44.975Z,17.73
2018-07-19T09:55:48.561Z,17.84
2018-07-19T10:00:57.681Z,17.27
2018-07-19T10:06:01.222Z,17.62
2018-07-19T10:11:04.741Z,17.66
2018-07-19T10:16:08.644Z,17.82
2018-07-19T10:21:12.160Z,17.34
2018-07-19T10:26:15.669Z,17.43
2018-07-19T10:31:19.316Z,17.07
2018-07-19T10:36:23.131Z,17.23
2018-07-19T10:41:27.407Z,17.72
2018-07-19T10:46:30.969Z,17.10
2018-07-19T10:51:34.473Z,16.85
2018-07-19T10:56:38.402Z,17.28
2018-07-19T11:01:42.054Z,17.17
2018-07-19T11:06:45.592Z,17.65
2018-07-19T11:11:49.301Z,17.18
2018-07-19T11:16:52.883Z,17.79
2018-07-19T11:21:56.489Z,17.62
2018-07-19T11:26:59.941Z,17.58
2018-07-19T11:32:03.754Z,17.17
2018-07-19T11:37:07.231Z,17.68
2018-07-19T11:42:11.302Z,17.53
2018-07-19T11:47:14.905Z,17.50
2018-07-19T11:52:18.601Z,17.53
2018-07-19T11:57:22.145Z,17.48
2018-07-19T12:02:25.724Z,17.87
2018-07-19T12:07:29.330Z,17.81
2018-07-19T12:12:32.997Z,17.31
2018-07-19T12:17:36.454Z,17.33
2018-07-19T12:22:40.158Z,17.49
2018-07-19T12:27:43.770Z,17.45
2018-07-19T12:32:47.481Z,17.96
2018-07-19T12:37:50.957Z,18.04
2018-07-19T12:42:55.412Z,17.97
2018-07-19T12:47:59.193Z,17.93
2018-07-19T12:53:02.928Z,18.08
2018-07-19T12:58:06.564Z,18.45
2018-07-19T13:03:10.036Z,18.44
2018-07-19T13:08:14.307Z,18.20
2018-07-19T13:13:18.324Z,18.14
2018-07-19T13:18:21.942Z,18.37
2018-07-19T13:23:25.567Z,18.12
2018-07-19T13:28:29.424Z,18.29
2018-07-19T13:33:33.454Z,17.92
2018-07-19T13:38:36.994Z,18.32
2018-07-19T13:43:40.660Z,17.95
2018-07-19T13:48:44.138Z,18.32
2018-07-19T13:54:17.029Z,18.91
2018-07-19T13:59:20.886Z,19.17
2018-07-19T14:04:24.531Z,18.76
2018-07-19T14:09:27.958Z,18.87
2018-07-19T14:14:31.383Z,18.62
2018-07-19T14:19:35.134Z,19.04
2018-07-19T14:24:38.686Z,19.11
2018-07-19T14:29:42.138Z,18.94
2018-07-19T14:34:45.629Z,19.13
2018-07-19T14:39:49.164Z,18.83
2018-07-19T14:44:52.858Z,18.80
2018-07-19T14:49:56.626Z,19.12
2018-07-19T14:55:00.358Z,19.24
2018-07-19T15:00:04.538Z,19.04
2018-07-19T15:05:08.569Z,19.05
2018-07-19T15:10:12.184Z,18.88
2018-07-19T15:15:15.797Z,19.22
2018-07-19T15:20:19.793Z,19.09
2018-07-19T15:25:23.523Z,18.92
2018-07-19T15:30:27.278Z,18.73
2018-07-19T15:35:30.862Z,19.10
2018-07-19T15:40:34.318Z,18.94
2018-07-19T15:45:37.798Z,19.15
2018-07-19T15:50:41.602Z,18.47
2018-07-19T15:55:45.253Z,18.42
2018-07-19T16:00:49.060Z,19.08
2018-07-19T16:05:52.765Z,18.89
2018-07-19T16:10:56.514Z,18.57
2018-07-19T16:16:00.123Z,19.27
2018-07-19T16:21:03.689Z,19.94
2018-07-19T16:26:07.544Z,20.72
2018-07-19T16:31:12.213Z,20.18
2018-07-19T16:36:16.438Z,20.21
2018-07-19T16:41:20.092Z,20.42
2018-07-19T16:46:23.701Z,20.45
2018-07-19T16:51:27.193Z,20.36
2018-07-19T16:56:30.685Z,20.65
2018-07-19T17:01:35.124Z,21.19
2018-07-19T17:06:39.165Z,21.10
2018-07-19T17:11:42.809Z,21.14
2018-07-19T17:16:46.290Z,20.83
2018-07-19T17:21:49.942Z,20.60
2018-07-19T17:26:54.364Z,21.11
2018-07-19T17:31:58.392Z,19.93
2018-07-19T17:37:02.289Z,19.89
2018-07-19T17:42:05.932Z,19.94
2018-07-19T17:47:09.548Z,20.00
2018-07-19T17:52:13.061Z,20.05
2018-07-19T17:57:17.025Z,19.55
2018-07-19T18:02:20.593Z,19.50
2018-07-19T18:07:24.517Z,19.29
2018-07-19T18:12:28.142Z,19.80
2018-07-19T18:17:32.222Z,19.29
2018-07-19T18:22:35.726Z,19.69
2018-07-19T18:27:39.367Z,19.56
2018-07-19T18:32:44.047Z,19.28
2018-07-19T18:37:47.756Z,19.11
2018-07-19T18:42:52.084Z,19.23
2018-07-19T18:47:55.584Z,19.04
2018-07-19T18:52:59.305Z,19.22
2018-07-19T18:58:02.849Z,19.29
2018-07-19T19:03:06.689Z,18.92
2018-07-19T19:08:10.557Z,18.84
2018-07-19T19:13:14.126Z,19.29
2018-07-19T19:18:17.902Z,19.05
2018-07-19T19:23:21.642Z,18.99
2018-07-19T19:28:25.400Z,18.43
2018-07-19T19:33:29.106Z,18.56
2018-07-19T19:38:32.610Z,18.64
2018-07-19T19:43:36.705Z,17.80
2018-07-19T19:48:40.397Z,17.84
2018-07-19T19:53:43.913Z,17.99
2018-07-19T19:58:47.516Z,17.83
2018-07-19T20:03:51.439Z,17.72
2018-07-19T20:08:55.156Z,17.78
2018-07-19T20:13:58.933Z,17.41
2018-07-19T20:19:02.386Z,17.48
2018-07-19T20:24:05.898Z,17.76
2018-07-19T20:29:09.594Z,17.44
2018-07-19T20:34:13.097Z,17.70
2018-07-19T20:39:16.613Z,17.57
2018-07-19T20:44:20.551Z,17.77
2018-07-19T20:49:23.980Z,18.01
2018-07-19T20:54:27.505Z,17.56
2018-07-19T20:59:31.108Z,17.95
2018-07-19T21:04:34.594Z,18.01
2018-07-19T21:09:38.741Z,18.09
2018-07-19T21:14:42.685Z,17.63
2018-07-19T21:19:46.192Z,18.02
2018-07-19T21:24:49.705Z,17.95
2018-07-19T21:29:54.048Z,18.07
2018-07-19T21:34:58.152Z,17.58
2018-07-19T21:40:01.791Z,18.01
2018-07-19T21:45:05.828Z,17.78
2018-07-19T21:50:09.545Z,18.04
2018-07-19T21:55:13.331Z,18.05
2018-07-19T22:00:16.801Z,18.07
2018-07-19T22:05:20.399Z,17.56
2018-07-19T22:10:23.877Z,17.55
2018-07-19T22:15:27.675Z,17.55
2018-07-19T22:20:31.289Z,17.62
2018-07-19T22:25:34.817Z,17.58
2018-07-19T22:30:38.387Z,17.62
2018-07-19T22:35:41.873Z,17.90
2018-07-19T22:40:45.334Z,17.50
2018-07-19T22:45:48.813Z,18.12
2018-07-19T22:50:52.286Z,17.82
2018-07-19T22:55:55.873Z,18.45
2018-07-19T23:00:59.425Z,18.33
2018-07-19T23:06:03.081Z,18.12
2018-07-19T23:11:06.612Z,18.54
2018-07-19T23:16:10.633Z,18.65
2018-07-19T23:21:14.261Z,18.14
2018-07-19T23:26:17.976Z,18.19
2018-07-19T23:31:21.738Z,18.05
2018-07-19T23:36:29.245Z,18.25
2018-07-19T23:41:38.047Z,18.03
2018-07-19T23:46:46.024Z,18.22
2018-07-19T23:51:49.477Z,18.44
2018-07-19T23:56:52.937Z,18.39
